sensor_id;sensor_type;location;lat;lon;timestamp;P1;durP1;ratioP1;P2;durP2;ratioP2
44222;SDS011;29895;48.804;9.386;2023-05-23T00:00:21;25.77;;;15.85;;
44222;SDS011;29895;48.804;9.386;2023-05-23T00:02:46;23.17;;;15.23;;
44222;SDS011;29895;48.804;9.386;2023-05-23T00:05:12;20.45;;;15.20;;
44222;SDS011;29895;48.804;9.386;2023-05-23T00:07:39;20.27;;;15.80;;
44222;SDS011;29895;48.804;9.386;2023-05-23T00:10:05;23.05;;;15.55;;
44222;SDS011;29895;48.804;9.386;2023-05-23T00:12:31;23.35;;;16.17;;
44222;SDS011;29895;48.804;9.386;2023-05-23T00:14:57;26.02;;;15.48;;
44222;SDS011;29895;48.804;9.386;2023-05-23T00:17:23;29.55;;;18.95;;
44222;SDS011;29895;48.804;9.386;2023-05-23T00:19:51;29.00;;;21.08;;
44222;SDS011;29895;48.804;9.386;2023-05-23T00:22:19;31.60;;;20.90;;
44222;SDS011;29895;48.804;9.386;2023-05-23T00:24:45;31.45;;;20.30;;
44222;SDS011;29895;48.804;9.386;2023-05-23T00:27:11;35.42;;;24.58;;
44222;SDS011;29895;48.804;9.386;2023-05-23T00:29:37;38.35;;;24.38;;
44222;SDS011;29895;48.804;9.386;2023-05-23T00:32:03;37.22;;;25.63;;
44222;SDS011;29895;48.804;9.386;2023-05-23T00:34:28;40.80;;;26.73;;
44222;SDS011;29895;48.804;9.386;2023-05-23T00:36:54;42.50;;;26.65;;
44222;SDS011;29895;48.804;9.386;2023-05-23T00:39:20;50.55;;;31.45;;
44222;SDS011;29895;48.804;9.386;2023-05-23T00:41:46;42.78;;;27.55;;
44222;SDS011;29895;48.804;9.386;2023-05-23T00:44:12;55.05;;;33.75;;
44222;SDS011;29895;48.804;9.386;2023-05-23T00:46:38;45.28;;;27.95;;
44222;SDS011;29895;48.804;9.386;2023-05-23T00:49:05;39.67;;;26.02;;
44222;SDS011;29895;48.804;9.386;2023-05-23T00:51:31;29.83;;;19.88;;
44222;SDS011;29895;48.804;9.386;2023-05-23T00:53:57;28.17;;;20.20;;
44222;SDS011;29895;48.804;9.386;2023-05-23T00:56:25;28.98;;;20.65;;
44222;SDS011;29895;48.804;9.386;2023-05-23T00:58:51;29.70;;;19.45;;
44222;SDS011;29895;48.804;9.386;2023-05-23T01:01:18;28.00;;;19.08;;
44222;SDS011;29895;48.804;9.386;2023-05-23T01:03:44;28.33;;;21.00;;
44222;SDS011;29895;48.804;9.386;2023-05-23T01:06:12;36.47;;;22.73;;
44222;SDS011;29895;48.804;9.386;2023-05-23T01:08:38;35.45;;;22.55;;
44222;SDS011;29895;48.804;9.386;2023-05-23T01:11:10;34.15;;;23.27;;
44222;SDS011;29895;48.804;9.386;2023-05-23T01:13:44;42.55;;;25.65;;
44222;SDS011;29895;48.804;9.386;2023-05-23T01:17:17;36.72;;;23.80;;
44222;SDS011;29895;48.804;9.386;2023-05-23T01:22:11;44.25;;;25.27;;
44222;SDS011;29895;48.804;9.386;2023-05-23T01:24:54;44.05;;;25.45;;
44222;SDS011;29895;48.804;9.386;2023-05-23T01:27:34;35.65;;;22.52;;
44222;SDS011;29895;48.804;9.386;2023-05-23T01:30:12;45.78;;;27.15;;
44222;SDS011;29895;48.804;9.386;2023-05-23T01:32:41;34.72;;;22.70;;
44222;SDS011;29895;48.804;9.386;2023-05-23T01:35:07;34.22;;;21.58;;
44222;SDS011;29895;48.804;9.386;2023-05-23T01:37:34;41.63;;;25.73;;
44222;SDS011;29895;48.804;9.386;2023-05-23T01:40:00;43.80;;;25.48;;
44222;SDS011;29895;48.804;9.386;2023-05-23T01:42:26;35.95;;;24.33;;
44222;SDS011;29895;48.804;9.386;2023-05-23T01:44:52;38.38;;;23.88;;
44222;SDS011;29895;48.804;9.386;2023-05-23T01:47:18;38.38;;;23.10;;
44222;SDS011;29895;48.804;9.386;2023-05-23T01:49:45;36.38;;;23.73;;
44222;SDS011;29895;48.804;9.386;2023-05-23T01:52:11;40.45;;;25.77;;
44222;SDS011;29895;48.804;9.386;2023-05-23T01:54:39;39.92;;;25.05;;
44222;SDS011;29895;48.804;9.386;2023-05-23T01:57:06;41.47;;;25.92;;
44222;SDS011;29895;48.804;9.386;2023-05-23T01:59:32;40.42;;;24.95;;
44222;SDS011;29895;48.804;9.386;2023-05-23T02:01:58;45.97;;;26.02;;
44222;SDS011;29895;48.804;9.386;2023-05-23T02:04:24;40.00;;;24.77;;
44222;SDS011;29895;48.804;9.386;2023-05-23T02:06:51;37.70;;;23.05;;
44222;SDS011;29895;48.804;9.386;2023-05-23T02:09:17;38.60;;;23.08;;
44222;SDS011;29895;48.804;9.386;2023-05-23T02:11:42;39.15;;;24.17;;
44222;SDS011;29895;48.804;9.386;2023-05-23T02:14:09;39.95;;;25.50;;
44222;SDS011;29895;48.804;9.386;2023-05-23T02:16:36;42.95;;;26.60;;
44222;SDS011;29895;48.804;9.386;2023-05-23T02:19:02;39.75;;;25.17;;
44222;SDS011;29895;48.804;9.386;2023-05-23T02:21:28;40.53;;;25.90;;
44222;SDS011;29895;48.804;9.386;2023-05-23T02:23:55;41.67;;;26.85;;
44222;SDS011;29895;48.804;9.386;2023-05-23T02:26:21;44.63;;;25.88;;
44222;SDS011;29895;48.804;9.386;2023-05-23T02:28:46;40.50;;;25.65;;
44222;SDS011;29895;48.804;9.386;2023-05-23T02:31:12;48.35;;;27.05;;
44222;SDS011;29895;48.804;9.386;2023-05-23T02:33:38;47.78;;;28.02;;
44222;SDS011;29895;48.804;9.386;2023-05-23T02:36:04;44.83;;;28.73;;
44222;SDS011;29895;48.804;9.386;2023-05-23T02:38:29;34.83;;;23.58;;
44222;SDS011;29895;48.804;9.386;2023-05-23T02:40:55;40.53;;;23.35;;
44222;SDS011;29895;48.804;9.386;2023-05-23T02:43:21;38.00;;;24.63;;
44222;SDS011;29895;48.804;9.386;2023-05-23T02:45:47;37.30;;;24.65;;
44222;SDS011;29895;48.804;9.386;2023-05-23T02:48:13;43.03;;;26.15;;
44222;SDS011;29895;48.804;9.386;2023-05-23T02:50:39;39.15;;;26.13;;
44222;SDS011;29895;48.804;9.386;2023-05-23T02:53:05;42.90;;;26.17;;
44222;SDS011;29895;48.804;9.386;2023-05-23T02:55:31;41.15;;;26.48;;
44222;SDS011;29895;48.804;9.386;2023-05-23T02:57:56;46.90;;;28.10;;
44222;SDS011;29895;48.804;9.386;2023-05-23T03:00:25;43.28;;;27.58;;
44222;SDS011;29895;48.804;9.386;2023-05-23T03:02:51;46.60;;;28.23;;
44222;SDS011;29895;48.804;9.386;2023-05-23T03:05:17;41.47;;;26.85;;
44222;SDS011;29895;48.804;9.386;2023-05-23T03:07:42;44.72;;;28.55;;
44222;SDS011;29895;48.804;9.386;2023-05-23T03:10:08;45.53;;;28.42;;
44222;SDS011;29895;48.804;9.386;2023-05-23T03:12:34;44.97;;;25.70;;
44222;SDS011;29895;48.804;9.386;2023-05-23T03:15:01;39.65;;;25.75;;
44222;SDS011;29895;48.804;9.386;2023-05-23T03:17:26;44.35;;;28.05;;
44222;SDS011;29895;48.804;9.386;2023-05-23T03:19:52;42.83;;;26.88;;
44222;SDS011;29895;48.804;9.386;2023-05-23T03:22:18;45.42;;;27.85;;
44222;SDS011;29895;48.804;9.386;2023-05-23T03:24:44;46.03;;;27.45;;
44222;SDS011;29895;48.804;9.386;2023-05-23T03:27:09;42.50;;;25.73;;
44222;SDS011;29895;48.804;9.386;2023-05-23T03:29:35;40.33;;;26.92;;
44222;SDS011;29895;48.804;9.386;2023-05-23T03:32:00;42.75;;;26.40;;
44222;SDS011;29895;48.804;9.386;2023-05-23T03:34:26;41.30;;;26.33;;
44222;SDS011;29895;48.804;9.386;2023-05-23T03:36:52;42.25;;;27.85;;
44222;SDS011;29895;48.804;9.386;2023-05-23T03:39:17;46.22;;;27.40;;
44222;SDS011;29895;48.804;9.386;2023-05-23T03:41:43;48.50;;;28.27;;
44222;SDS011;29895;48.804;9.386;2023-05-23T03:44:09;44.70;;;28.75;;
44222;SDS011;29895;48.804;9.386;2023-05-23T03:46:34;46.20;;;29.05;;
44222;SDS011;29895;48.804;9.386;2023-05-23T03:49:00;48.83;;;31.15;;
44222;SDS011;29895;48.804;9.386;2023-05-23T03:51:25;46.92;;;29.23;;
44222;SDS011;29895;48.804;9.386;2023-05-23T03:53:52;47.78;;;29.70;;
44222;SDS011;29895;48.804;9.386;2023-05-23T03:56:17;42.03;;;27.23;;
44222;SDS011;29895;48.804;9.386;2023-05-23T03:58:43;49.25;;;29.77;;
44222;SDS011;29895;48.804;9.386;2023-05-23T04:01:09;45.25;;;29.55;;
44222;SDS011;29895;48.804;9.386;2023-05-23T04:03:35;47.58;;;30.05;;
44222;SDS011;29895;48.804;9.386;2023-05-23T04:06:01;48.67;;;29.63;;
44222;SDS011;29895;48.804;9.386;2023-05-23T04:08:27;54.50;;;32.70;;
44222;SDS011;29895;48.804;9.386;2023-05-23T04:10:53;50.38;;;31.55;;
44222;SDS011;29895;48.804;9.386;2023-05-23T04:13:18;53.97;;;34.65;;
44222;SDS011;29895;48.804;9.386;2023-05-23T04:15:45;55.90;;;32.78;;
44222;SDS011;29895;48.804;9.386;2023-05-23T04:18:12;54.63;;;32.63;;
44222;SDS011;29895;48.804;9.386;2023-05-23T04:20:38;54.80;;;33.50;;
44222;SDS011;29895;48.804;9.386;2023-05-23T04:23:05;48.25;;;31.90;;
44222;SDS011;29895;48.804;9.386;2023-05-23T04:25:30;48.35;;;29.52;;
44222;SDS011;29895;48.804;9.386;2023-05-23T04:27:56;51.28;;;31.17;;
44222;SDS011;29895;48.804;9.386;2023-05-23T04:30:22;47.50;;;30.10;;
44222;SDS011;29895;48.804;9.386;2023-05-23T04:32:47;53.58;;;30.30;;
44222;SDS011;29895;48.804;9.386;2023-05-23T04:35:13;57.58;;;33.83;;
44222;SDS011;29895;48.804;9.386;2023-05-23T04:37:39;54.72;;;34.45;;
44222;SDS011;29895;48.804;9.386;2023-05-23T04:40:05;55.25;;;34.33;;
44222;SDS011;29895;48.804;9.386;2023-05-23T04:42:31;76.43;;;41.25;;
44222;SDS011;29895;48.804;9.386;2023-05-23T04:44:57;88.07;;;52.90;;
44222;SDS011;29895;48.804;9.386;2023-05-23T04:47:23;93.68;;;55.28;;
44222;SDS011;29895;48.804;9.386;2023-05-23T04:49:52;96.35;;;55.78;;
44222;SDS011;29895;48.804;9.386;2023-05-23T04:52:18;95.40;;;55.85;;
44222;SDS011;29895;48.804;9.386;2023-05-23T04:54:44;87.40;;;54.55;;
44222;SDS011;29895;48.804;9.386;2023-05-23T04:57:11;96.53;;;55.17;;
44222;SDS011;29895;48.804;9.386;2023-05-23T04:59:37;90.38;;;54.38;;
44222;SDS011;29895;48.804;9.386;2023-05-23T05:02:03;91.05;;;55.70;;
44222;SDS011;29895;48.804;9.386;2023-05-23T05:04:30;91.90;;;55.35;;
44222;SDS011;29895;48.804;9.386;2023-05-23T05:06:55;98.70;;;58.33;;
44222;SDS011;29895;48.804;9.386;2023-05-23T05:09:21;107.35;;;61.63;;
44222;SDS011;29895;48.804;9.386;2023-05-23T05:11:47;95.13;;;58.33;;
44222;SDS011;29895;48.804;9.386;2023-05-23T05:14:13;101.50;;;59.17;;
44222;SDS011;29895;48.804;9.386;2023-05-23T05:16:39;95.63;;;58.15;;
44222;SDS011;29895;48.804;9.386;2023-05-23T05:19:06;96.25;;;59.42;;
44222;SDS011;29895;48.804;9.386;2023-05-23T05:21:32;91.65;;;56.88;;
44222;SDS011;29895;48.804;9.386;2023-05-23T05:23:57;95.22;;;58.70;;
44222;SDS011;29895;48.804;9.386;2023-05-23T05:26:24;100.32;;;61.50;;
44222;SDS011;29895;48.804;9.386;2023-05-23T05:28:50;96.78;;;58.67;;
44222;SDS011;29895;48.804;9.386;2023-05-23T05:31:17;91.88;;;57.42;;
44222;SDS011;29895;48.804;9.386;2023-05-23T05:33:42;91.43;;;56.75;;
44222;SDS011;29895;48.804;9.386;2023-05-23T05:36:10;97.30;;;59.55;;
44222;SDS011;29895;48.804;9.386;2023-05-23T05:38:36;91.95;;;56.30;;
44222;SDS011;29895;48.804;9.386;2023-05-23T05:41:01;93.00;;;56.38;;
44222;SDS011;29895;48.804;9.386;2023-05-23T05:43:27;91.53;;;56.25;;
44222;SDS011;29895;48.804;9.386;2023-05-23T05:45:53;90.75;;;53.45;;
44222;SDS011;29895;48.804;9.386;2023-05-23T05:48:18;89.97;;;54.90;;
44222;SDS011;29895;48.804;9.386;2023-05-23T05:50:44;85.43;;;53.60;;
44222;SDS011;29895;48.804;9.386;2023-05-23T05:53:10;88.03;;;54.80;;
44222;SDS011;29895;48.804;9.386;2023-05-23T05:55:37;86.70;;;54.28;;
44222;SDS011;29895;48.804;9.386;2023-05-23T05:58:02;84.93;;;51.92;;
44222;SDS011;29895;48.804;9.386;2023-05-23T06:00:28;83.50;;;53.03;;
44222;SDS011;29895;48.804;9.386;2023-05-23T06:02:54;80.15;;;49.90;;
44222;SDS011;29895;48.804;9.386;2023-05-23T06:05:21;88.57;;;54.00;;
44222;SDS011;29895;48.804;9.386;2023-05-23T06:07:48;81.07;;;53.60;;
44222;SDS011;29895;48.804;9.386;2023-05-23T06:10:15;82.15;;;50.42;;
44222;SDS011;29895;48.804;9.386;2023-05-23T06:12:40;89.93;;;53.20;;
44222;SDS011;29895;48.804;9.386;2023-05-23T06:15:07;78.70;;;49.75;;
44222;SDS011;29895;48.804;9.386;2023-05-23T06:17:38;81.72;;;52.33;;
44222;SDS011;29895;48.804;9.386;2023-05-23T06:20:04;78.90;;;51.30;;
44222;SDS011;29895;48.804;9.386;2023-05-23T06:22:30;90.50;;;52.53;;
44222;SDS011;29895;48.804;9.386;2023-05-23T06:24:55;87.07;;;52.67;;
44222;SDS011;29895;48.804;9.386;2023-05-23T06:27:21;78.50;;;50.67;;
44222;SDS011;29895;48.804;9.386;2023-05-23T06:29:53;74.88;;;47.45;;
44222;SDS011;29895;48.804;9.386;2023-05-23T06:32:19;78.18;;;52.33;;
44222;SDS011;29895;48.804;9.386;2023-05-23T06:34:45;81.55;;;50.78;;
44222;SDS011;29895;48.804;9.386;2023-05-23T06:37:10;74.85;;;49.63;;
44222;SDS011;29895;48.804;9.386;2023-05-23T06:39:36;75.80;;;49.53;;
44222;SDS011;29895;48.804;9.386;2023-05-23T06:42:01;76.65;;;47.42;;
44222;SDS011;29895;48.804;9.386;2023-05-23T06:44:28;72.65;;;47.45;;
44222;SDS011;29895;48.804;9.386;2023-05-23T06:46:54;72.47;;;46.28;;
44222;SDS011;29895;48.804;9.386;2023-05-23T06:49:24;73.57;;;47.05;;
44222;SDS011;29895;48.804;9.386;2023-05-23T06:51:50;71.93;;;47.75;;
44222;SDS011;29895;48.804;9.386;2023-05-23T06:54:16;70.72;;;48.55;;
44222;SDS011;29895;48.804;9.386;2023-05-23T06:56:43;76.13;;;48.45;;
44222;SDS011;29895;48.804;9.386;2023-05-23T06:59:09;70.40;;;47.42;;
44222;SDS011;29895;48.804;9.386;2023-05-23T07:01:34;69.38;;;47.58;;
44222;SDS011;29895;48.804;9.386;2023-05-23T07:04:00;71.95;;;47.78;;
44222;SDS011;29895;48.804;9.386;2023-05-23T07:06:26;66.97;;;45.97;;
44222;SDS011;29895;48.804;9.386;2023-05-23T07:08:53;68.63;;;46.53;;
44222;SDS011;29895;48.804;9.386;2023-05-23T07:11:20;66.63;;;46.78;;
44222;SDS011;29895;48.804;9.386;2023-05-23T07:13:46;71.47;;;46.80;;
44222;SDS011;29895;48.804;9.386;2023-05-23T07:16:11;64.68;;;45.45;;
44222;SDS011;29895;48.804;9.386;2023-05-23T07:18:37;66.35;;;43.80;;
44222;SDS011;29895;48.804;9.386;2023-05-23T07:21:03;69.60;;;44.05;;
44222;SDS011;29895;48.804;9.386;2023-05-23T07:23:31;66.65;;;43.53;;
44222;SDS011;29895;48.804;9.386;2023-05-23T07:25:58;62.05;;;41.90;;
44222;SDS011;29895;48.804;9.386;2023-05-23T07:28:24;68.22;;;44.92;;
44222;SDS011;29895;48.804;9.386;2023-05-23T07:30:49;57.13;;;42.20;;
44222;SDS011;29895;48.804;9.386;2023-05-23T07:33:15;64.97;;;42.92;;
44222;SDS011;29895;48.804;9.386;2023-05-23T07:35:41;63.50;;;44.92;;
44222;SDS011;29895;48.804;9.386;2023-05-23T07:38:08;63.78;;;45.50;;
44222;SDS011;29895;48.804;9.386;2023-05-23T07:40:33;70.60;;;47.95;;
44222;SDS011;29895;48.804;9.386;2023-05-23T07:42:59;69.82;;;47.03;;
44222;SDS011;29895;48.804;9.386;2023-05-23T07:45:24;67.72;;;47.42;;
44222;SDS011;29895;48.804;9.386;2023-05-23T07:47:50;64.97;;;44.72;;
44222;SDS011;29895;48.804;9.386;2023-05-23T07:50:16;61.85;;;45.20;;
44222;SDS011;29895;48.804;9.386;2023-05-23T07:52:42;62.75;;;43.13;;
44222;SDS011;29895;48.804;9.386;2023-05-23T07:55:08;59.47;;;41.72;;
44222;SDS011;29895;48.804;9.386;2023-05-23T07:57:34;56.53;;;39.90;;
44222;SDS011;29895;48.804;9.386;2023-05-23T07:59:59;56.63;;;41.00;;
44222;SDS011;29895;48.804;9.386;2023-05-23T08:02:25;52.92;;;37.20;;
44222;SDS011;29895;48.804;9.386;2023-05-23T08:04:51;50.15;;;35.50;;
44222;SDS011;29895;48.804;9.386;2023-05-23T08:07:17;47.03;;;35.25;;
44222;SDS011;29895;48.804;9.386;2023-05-23T08:09:43;40.47;;;31.60;;
44222;SDS011;29895;48.804;9.386;2023-05-23T08:12:10;43.92;;;31.10;;
44222;SDS011;29895;48.804;9.386;2023-05-23T08:14:35;44.20;;;31.77;;
44222;SDS011;29895;48.804;9.386;2023-05-23T08:17:01;40.50;;;30.25;;
44222;SDS011;29895;48.804;9.386;2023-05-23T08:19:27;42.08;;;29.17;;
44222;SDS011;29895;48.804;9.386;2023-05-23T08:21:53;39.08;;;28.95;;
44222;SDS011;29895;48.804;9.386;2023-05-23T08:24:19;34.70;;;26.50;;
44222;SDS011;29895;48.804;9.386;2023-05-23T08:26:45;40.30;;;27.70;;
44222;SDS011;29895;48.804;9.386;2023-05-23T08:29:10;41.97;;;28.90;;
44222;SDS011;29895;48.804;9.386;2023-05-23T08:31:36;37.47;;;27.73;;
44222;SDS011;29895;48.804;9.386;2023-05-23T08:34:02;38.22;;;27.45;;
44222;SDS011;29895;48.804;9.386;2023-05-23T08:36:28;35.17;;;27.30;;
44222;SDS011;29895;48.804;9.386;2023-05-23T08:38:53;33.28;;;27.20;;
44222;SDS011;29895;48.804;9.386;2023-05-23T08:41:20;37.67;;;26.98;;
44222;SDS011;29895;48.804;9.386;2023-05-23T08:43:47;33.28;;;27.00;;
44222;SDS011;29895;48.804;9.386;2023-05-23T08:46:13;35.50;;;26.85;;
44222;SDS011;29895;48.804;9.386;2023-05-23T08:48:39;36.35;;;28.00;;
44222;SDS011;29895;48.804;9.386;2023-05-23T08:51:08;37.80;;;28.25;;
44222;SDS011;29895;48.804;9.386;2023-05-23T08:53:37;36.70;;;26.27;;
44222;SDS011;29895;48.804;9.386;2023-05-23T08:56:05;34.70;;;25.40;;
44222;SDS011;29895;48.804;9.386;2023-05-23T08:58:31;28.63;;;22.95;;
44222;SDS011;29895;48.804;9.386;2023-05-23T09:00:59;28.55;;;23.85;;
44222;SDS011;29895;48.804;9.386;2023-05-23T09:03:25;34.30;;;26.65;;
44222;SDS011;29895;48.804;9.386;2023-05-23T09:05:52;30.05;;;25.13;;
44222;SDS011;29895;48.804;9.386;2023-05-23T09:08:19;30.05;;;23.88;;
44222;SDS011;29895;48.804;9.386;2023-05-23T09:10:46;33.45;;;24.35;;
44222;SDS011;29895;48.804;9.386;2023-05-23T09:13:14;31.10;;;24.58;;
44222;SDS011;29895;48.804;9.386;2023-05-23T09:18:36;27.50;;;20.17;;
44222;SDS011;29895;48.804;9.386;2023-05-23T09:21:04;27.30;;;22.40;;
44222;SDS011;29895;48.804;9.386;2023-05-23T09:23:30;27.23;;;22.05;;
44222;SDS011;29895;48.804;9.386;2023-05-23T09:26:00;27.00;;;22.15;;
44222;SDS011;29895;48.804;9.386;2023-05-23T09:28:33;33.15;;;22.70;;
44222;SDS011;29895;48.804;9.386;2023-05-23T09:31:03;27.23;;;22.00;;
44222;SDS011;29895;48.804;9.386;2023-05-23T09:36:17;28.17;;;20.17;;
44222;SDS011;29895;48.804;9.386;2023-05-23T09:38:44;26.15;;;19.45;;
44222;SDS011;29895;48.804;9.386;2023-05-23T09:41:12;28.08;;;19.73;;
44222;SDS011;29895;48.804;9.386;2023-05-23T09:43:50;28.27;;;19.70;;
44222;SDS011;29895;48.804;9.386;2023-05-23T09:46:17;24.40;;;19.33;;
44222;SDS011;29895;48.804;9.386;2023-05-23T09:48:47;25.75;;;19.13;;
44222;SDS011;29895;48.804;9.386;2023-05-23T09:53:42;30.95;;;20.00;;
44222;SDS011;29895;48.804;9.386;2023-05-23T09:56:08;26.55;;;20.48;;
44222;SDS011;29895;48.804;9.386;2023-05-23T09:58:35;26.50;;;19.75;;
44222;SDS011;29895;48.804;9.386;2023-05-23T10:01:02;27.27;;;18.23;;
44222;SDS011;29895;48.804;9.386;2023-05-23T10:03:33;28.17;;;20.05;;
44222;SDS011;29895;48.804;9.386;2023-05-23T10:06:31;25.90;;;18.02;;
44222;SDS011;29895;48.804;9.386;2023-05-23T10:09:09;27.33;;;19.10;;
44222;SDS011;29895;48.804;9.386;2023-05-23T10:11:58;24.77;;;19.00;;
44222;SDS011;29895;48.804;9.386;2023-05-23T10:14:48;25.27;;;19.02;;
44222;SDS011;29895;48.804;9.386;2023-05-23T10:17:20;21.48;;;17.90;;
44222;SDS011;29895;48.804;9.386;2023-05-23T10:20:07;23.35;;;18.00;;
44222;SDS011;29895;48.804;9.386;2023-05-23T10:22:36;24.63;;;17.70;;
44222;SDS011;29895;48.804;9.386;2023-05-23T10:25:03;23.88;;;17.10;;
44222;SDS011;29895;48.804;9.386;2023-05-23T10:27:30;21.63;;;17.20;;
44222;SDS011;29895;48.804;9.386;2023-05-23T10:29:56;21.17;;;17.45;;
44222;SDS011;29895;48.804;9.386;2023-05-23T10:32:25;24.67;;;17.42;;
44222;SDS011;29895;48.804;9.386;2023-05-23T10:38:15;26.23;;;20.35;;
44222;SDS011;29895;48.804;9.386;2023-05-23T10:43:54;23.67;;;18.60;;
44222;SDS011;29895;48.804;9.386;2023-05-23T10:49:15;23.10;;;18.42;;
44222;SDS011;29895;48.804;9.386;2023-05-23T10:51:41;25.90;;;17.92;;
44222;SDS011;29895;48.804;9.386;2023-05-23T10:54:09;25.52;;;17.75;;
44222;SDS011;29895;48.804;9.386;2023-05-23T10:56:36;22.17;;;18.05;;
44222;SDS011;29895;48.804;9.386;2023-05-23T10:59:03;24.45;;;18.83;;
44222;SDS011;29895;48.804;9.386;2023-05-23T11:01:30;22.55;;;18.60;;
44222;SDS011;29895;48.804;9.386;2023-05-23T11:03:56;23.38;;;17.88;;
44222;SDS011;29895;48.804;9.386;2023-05-23T11:06:41;23.27;;;17.25;;
44222;SDS011;29895;48.804;9.386;2023-05-23T11:09:12;25.85;;;16.70;;
44222;SDS011;29895;48.804;9.386;2023-05-23T11:12:02;21.25;;;15.93;;
44222;SDS011;29895;48.804;9.386;2023-05-23T11:19:39;21.98;;;16.13;;
44222;SDS011;29895;48.804;9.386;2023-05-23T11:22:29;19.92;;;15.40;;
44222;SDS011;29895;48.804;9.386;2023-05-23T11:24:56;21.35;;;14.40;;
44222;SDS011;29895;48.804;9.386;2023-05-23T11:27:32;18.42;;;15.07;;
44222;SDS011;29895;48.804;9.386;2023-05-23T11:32:33;18.85;;;14.30;;
44222;SDS011;29895;48.804;9.386;2023-05-23T11:35:00;20.90;;;14.73;;
44222;SDS011;29895;48.804;9.386;2023-05-23T11:37:27;16.95;;;13.85;;
44222;SDS011;29895;48.804;9.386;2023-05-23T11:39:54;18.88;;;13.90;;
44222;SDS011;29895;48.804;9.386;2023-05-23T11:42:20;17.25;;;13.23;;
44222;SDS011;29895;48.804;9.386;2023-05-23T11:44:50;15.32;;;12.48;;
44222;SDS011;29895;48.804;9.386;2023-05-23T11:47:16;16.50;;;12.05;;
44222;SDS011;29895;48.804;9.386;2023-05-23T11:49:43;14.88;;;11.95;;
44222;SDS011;29895;48.804;9.386;2023-05-23T11:52:13;14.93;;;11.45;;
44222;SDS011;29895;48.804;9.386;2023-05-23T11:54:39;17.60;;;11.95;;
44222;SDS011;29895;48.804;9.386;2023-05-23T11:57:08;13.52;;;11.05;;
44222;SDS011;29895;48.804;9.386;2023-05-23T11:59:34;12.95;;;10.85;;
44222;SDS011;29895;48.804;9.386;2023-05-23T12:02:01;17.13;;;10.40;;
44222;SDS011;29895;48.804;9.386;2023-05-23T12:04:27;15.15;;;9.98;;
44222;SDS011;29895;48.804;9.386;2023-05-23T12:06:53;16.80;;;10.75;;
44222;SDS011;29895;48.804;9.386;2023-05-23T12:09:19;17.23;;;12.20;;
44222;SDS011;29895;48.804;9.386;2023-05-23T12:11:45;13.18;;;10.88;;
44222;SDS011;29895;48.804;9.386;2023-05-23T12:14:13;12.40;;;9.68;;
44222;SDS011;29895;48.804;9.386;2023-05-23T12:16:42;13.90;;;11.07;;
44222;SDS011;29895;48.804;9.386;2023-05-23T12:19:11;12.98;;;9.77;;
44222;SDS011;29895;48.804;9.386;2023-05-23T12:21:47;13.63;;;9.98;;
44222;SDS011;29895;48.804;9.386;2023-05-23T12:26:59;15.45;;;9.93;;
44222;SDS011;29895;48.804;9.386;2023-05-23T12:29:33;10.63;;;8.98;;
44222;SDS011;29895;48.804;9.386;2023-05-23T12:32:00;12.45;;;9.27;;
44222;SDS011;29895;48.804;9.386;2023-05-23T12:34:27;11.50;;;8.93;;
44222;SDS011;29895;48.804;9.386;2023-05-23T12:36:56;10.85;;;9.02;;
44222;SDS011;29895;48.804;9.386;2023-05-23T12:39:24;10.63;;;7.60;;
44222;SDS011;29895;48.804;9.386;2023-05-23T12:42:06;9.95;;;8.07;;
44222;SDS011;29895;48.804;9.386;2023-05-23T12:44:33;11.27;;;9.00;;
44222;SDS011;29895;48.804;9.386;2023-05-23T12:46:59;11.73;;;8.95;;
44222;SDS011;29895;48.804;9.386;2023-05-23T12:49:25;12.77;;;8.82;;
44222;SDS011;29895;48.804;9.386;2023-05-23T12:51:51;12.30;;;8.75;;
44222;SDS011;29895;48.804;9.386;2023-05-23T12:54:16;10.88;;;8.73;;
44222;SDS011;29895;48.804;9.386;2023-05-23T12:56:42;9.93;;;8.68;;
44222;SDS011;29895;48.804;9.386;2023-05-23T12:59:08;11.23;;;8.55;;
44222;SDS011;29895;48.804;9.386;2023-05-23T13:01:33;12.15;;;8.60;;
44222;SDS011;29895;48.804;9.386;2023-05-23T13:03:59;12.75;;;8.90;;
44222;SDS011;29895;48.804;9.386;2023-05-23T13:06:25;11.43;;;8.15;;
44222;SDS011;29895;48.804;9.386;2023-05-23T13:08:51;10.45;;;8.52;;
44222;SDS011;29895;48.804;9.386;2023-05-23T13:11:18;10.45;;;8.50;;
44222;SDS011;29895;48.804;9.386;2023-05-23T13:13:46;9.48;;;7.43;;
44222;SDS011;29895;48.804;9.386;2023-05-23T13:16:12;8.52;;;6.93;;
44222;SDS011;29895;48.804;9.386;2023-05-23T13:18:38;12.25;;;7.60;;
44222;SDS011;29895;48.804;9.386;2023-05-23T13:21:03;9.32;;;7.13;;
44222;SDS011;29895;48.804;9.386;2023-05-23T13:23:29;8.48;;;6.80;;
44222;SDS011;29895;48.804;9.386;2023-05-23T13:25:55;9.32;;;7.60;;
44222;SDS011;29895;48.804;9.386;2023-05-23T13:28:22;7.85;;;7.05;;
44222;SDS011;29895;48.804;9.386;2023-05-23T13:30:47;8.05;;;7.25;;
44222;SDS011;29895;48.804;9.386;2023-05-23T13:33:13;10.35;;;7.05;;
44222;SDS011;29895;48.804;9.386;2023-05-23T13:35:39;13.70;;;6.93;;
44222;SDS011;29895;48.804;9.386;2023-05-23T13:38:05;8.80;;;6.20;;
44222;SDS011;29895;48.804;9.386;2023-05-23T13:40:30;10.20;;;6.65;;
44222;SDS011;29895;48.804;9.386;2023-05-23T13:42:56;8.35;;;6.10;;
44222;SDS011;29895;48.804;9.386;2023-05-23T13:45:22;10.48;;;6.68;;
44222;SDS011;29895;48.804;9.386;2023-05-23T13:47:48;9.30;;;6.85;;
44222;SDS011;29895;48.804;9.386;2023-05-23T13:50:14;8.38;;;5.97;;
44222;SDS011;29895;48.804;9.386;2023-05-23T13:52:40;7.03;;;6.22;;
44222;SDS011;29895;48.804;9.386;2023-05-23T13:55:06;16.00;;;6.90;;
44222;SDS011;29895;48.804;9.386;2023-05-23T13:57:32;14.20;;;6.65;;
44222;SDS011;29895;48.804;9.386;2023-05-23T13:59:58;7.93;;;6.07;;
44222;SDS011;29895;48.804;9.386;2023-05-23T14:02:24;7.38;;;5.65;;
44222;SDS011;29895;48.804;9.386;2023-05-23T14:04:51;9.25;;;6.25;;
44222;SDS011;29895;48.804;9.386;2023-05-23T14:07:16;7.75;;;5.88;;
44222;SDS011;29895;48.804;9.386;2023-05-23T14:09:43;8.52;;;6.07;;
44222;SDS011;29895;48.804;9.386;2023-05-23T14:12:08;10.05;;;5.53;;
44222;SDS011;29895;48.804;9.386;2023-05-23T14:14:34;6.35;;;5.38;;
44222;SDS011;29895;48.804;9.386;2023-05-23T14:17:00;6.90;;;5.07;;
44222;SDS011;29895;48.804;9.386;2023-05-23T14:19:25;10.35;;;5.53;;
44222;SDS011;29895;48.804;9.386;2023-05-23T14:21:51;7.28;;;6.10;;
44222;SDS011;29895;48.804;9.386;2023-05-23T14:24:17;6.03;;;5.43;;
44222;SDS011;29895;48.804;9.386;2023-05-23T14:26:42;6.43;;;4.82;;
44222;SDS011;29895;48.804;9.386;2023-05-23T14:29:08;9.65;;;4.70;;
44222;SDS011;29895;48.804;9.386;2023-05-23T14:31:34;6.05;;;5.07;;
44222;SDS011;29895;48.804;9.386;2023-05-23T14:33:59;8.05;;;5.15;;
44222;SDS011;29895;48.804;9.386;2023-05-23T14:36:26;9.07;;;5.28;;
44222;SDS011;29895;48.804;9.386;2023-05-23T14:38:52;9.68;;;4.97;;
44222;SDS011;29895;48.804;9.386;2023-05-23T14:41:17;7.72;;;5.10;;
44222;SDS011;29895;48.804;9.386;2023-05-23T14:43:43;5.88;;;5.28;;
44222;SDS011;29895;48.804;9.386;2023-05-23T14:46:09;6.82;;;5.88;;
44222;SDS011;29895;48.804;9.386;2023-05-23T14:48:34;4.90;;;4.40;;
44222;SDS011;29895;48.804;9.386;2023-05-23T14:51:00;8.15;;;4.63;;
44222;SDS011;29895;48.804;9.386;2023-05-23T14:53:26;9.35;;;4.90;;
44222;SDS011;29895;48.804;9.386;2023-05-23T14:55:55;9.20;;;4.53;;